Time;durP1;ratioP1;P1;durP2;ratioP2;P2;SDS_P1;SDS_P2;PMS_P1;PMS_P2;Temp;Humidity;BMP_temperature;BMP_pressure;BME280_temperature;BME280_humidity;BME280_pressure;Samples;Min_cycle;Max_cycle;Signal;HPM_P1;HPM_P2
2024/03/01 00:01:19;;;;;;;6.30;3.70;;;;;;;;;;5053587;28;20072;-74
2024/03/01 00:03:45;;;;;;;9.27;4.63;;;;;;;;;;5053340;28;20049;-74
2024/03/01 00:06:13;;;;;;;8.43;5.15;;;;;;;;;;5053493;28;20477;-75
2024/03/01 00:08:39;;;;;;;11.65;5.43;;;;;;;;;;5053441;28;20599;-73
2024/03/01 00:11:05;;;;;;;9.18;4.90;;;;;;;;;;5053301;28;20219;-74
2024/03/01 00:13:31;;;;;;;7.22;4.68;;;;;;;;;;5054685;28;20032;-73
2024/03/01 00:15:58;;;;;;;9.63;5.53;;;;;;;;;;5054523;28;20045;-73
2024/03/01 00:18:24;;;;;;;8.85;5.05;;;;;;;;;;5055137;28;20021;-73
2024/03/01 00:20:53;;;;;;;9.90;5.65;;;;;;;;;;5053036;28;20037;-73
2024/03/01 00:23:19;;;;;;;8.45;5.05;;;;;;;;;;5053293;28;20021;-73
2024/03/01 00:25:48;;;;;;;8.52;4.93;;;;;;;;;;5054495;28;20040;-74
2024/03/01 00:28:14;;;;;;;10.25;5.28;;;;;;;;;;5053225;28;20028;-74
2024/03/01 00:30:40;;;;;;;10.13;5.07;;;;;;;;;;5053033;28;20104;-74
2024/03/01 00:33:06;;;;;;;9.82;4.50;;;;;;;;;;5052743;28;20477;-74
2024/03/01 00:35:32;;;;;;;11.10;5.93;;;;;;;;;;5054163;28;20036;-73
2024/03/01 00:37:58;;;;;;;10.45;4.03;;;;;;;;;;5052626;28;20094;-73
2024/03/01 00:40:24;;;;;;;9.40;5.22;;;;;;;;;;5052905;28;20034;-73
2024/03/01 00:42:50;;;;;;;8.90;4.97;;;;;;;;;;5053617;28;20032;-74
2024/03/01 00:45:16;;;;;;;7.97;4.80;;;;;;;;;;5052853;28;20025;-74
2024/03/01 00:47:46;;;;;;;12.73;6.20;;;;;;;;;;5052743;28;20029;-74
2024/03/01 00:50:12;;;;;;;8.90;4.78;;;;;;;;;;5054538;28;20028;-75
2024/03/01 00:52:38;;;;;;;9.57;5.93;;;;;;;;;;5054022;28;20082;-75
2024/03/01 00:55:05;;;;;;;16.35;7.00;;;;;;;;;;5053524;28;20021;-74
2024/03/01 00:57:32;;;;;;;10.55;5.75;;;;;;;;;;5052745;28;20021;-75
2024/03/01 00:59:59;;;;;;;9.18;5.18;;;;;;;;;;5052401;28;20021;-75
2024/03/01 01:02:25;;;;;;;11.00;5.80;;;;;;;;;;5054104;28;20037;-74
2024/03/01 01:04:51;;;;;;;14.48;6.45;;;;;;;;;;5052183;28;20393;-74
2024/03/01 01:07:19;;;;;;;10.38;5.75;;;;;;;;;;5053693;28;20032;-75
2024/03/01 01:09:45;;;;;;;12.68;6.65;;;;;;;;;;5052321;28;20501;-75
2024/03/01 01:12:11;;;;;;;8.20;4.93;;;;;;;;;;5051466;28;20025;-74
2024/03/01 01:14:37;;;;;;;9.90;5.15;;;;;;;;;;5053600;28;20025;-73
2024/03/01 01:17:03;;;;;;;11.10;6.75;;;;;;;;;;5053194;28;20069;-74
2024/03/01 01:19:29;;;;;;;11.63;6.25;;;;;;;;;;5052065;28;20056;-73
2024/03/01 01:21:56;;;;;;;10.73;5.80;;;;;;;;;;5051909;28;20091;-74
2024/03/01 01:24:22;;;;;;;9.55;4.50;;;;;;;;;;5052053;28;20546;-74
2024/03/01 01:26:48;;;;;;;10.27;5.70;;;;;;;;;;5051945;28;20473;-74
2024/03/01 01:29:14;;;;;;;11.07;5.82;;;;;;;;;;5051745;28;20024;-74
2024/03/01 01:31:41;;;;;;;10.20;5.75;;;;;;;;;;5051994;28;20469;-74
2024/03/01 01:34:07;;;;;;;11.00;6.63;;;;;;;;;;5051624;28;20028;-75
2024/03/01 01:36:33;;;;;;;10.57;5.88;;;;;;;;;;5051870;28;20025;-74
2024/03/01 01:38:59;;;;;;;11.60;6.32;;;;;;;;;;5051456;28;20044;-74
2024/03/01 01:41:25;;;;;;;13.05;5.75;;;;;;;;;;5052816;28;20025;-75
2024/03/01 01:43:51;;;;;;;10.80;6.10;;;;;;;;;;5051688;28;20028;-75
2024/03/01 01:46:17;;;;;;;11.20;5.95;;;;;;;;;;5052658;28;20013;-75
2024/03/01 01:48:44;;;;;;;10.18;6.50;;;;;;;;;;5052853;28;20082;-74
2024/03/01 01:51:11;;;;;;;10.63;5.32;;;;;;;;;;5052976;28;20104;-75
2024/03/01 01:53:37;;;;;;;10.02;5.65;;;;;;;;;;5052840;28;20028;-74
2024/03/01 01:56:04;;;;;;;13.07;7.72;;;;;;;;;;5051283;28;20484;-75
2024/03/01 01:58:33;;;;;;;12.35;7.30;;;;;;;;;;5052620;28;20021;-74
2024/03/01 02:00:59;;;;;;;10.55;6.13;;;;;;;;;;5052450;28;20167;-73
2024/03/01 02:03:27;;;;;;;12.73;8.18;;;;;;;;;;5052702;28;20029;-74
2024/03/01 02:05:53;;;;;;;13.65;6.78;;;;;;;;;;5051201;28;20021;-74
2024/03/01 02:08:19;;;;;;;9.32;5.63;;;;;;;;;;5050902;28;20036;-74
2024/03/01 02:10:45;;;;;;;11.38;7.30;;;;;;;;;;5051254;28;20024;-75
2024/03/01 02:13:18;;;;;;;10.65;5.20;;;;;;;;;;5051090;28;20047;-74
2024/03/01 02:15:44;;;;;;;9.35;5.05;;;;;;;;;;5051170;28;20357;-74
2024/03/01 02:18:10;;;;;;;10.80;4.65;;;;;;;;;;5051622;28;20136;-74
2024/03/01 02:20:39;;;;;;;13.15;7.57;;;;;;;;;;5051651;28;20033;-74
2024/03/01 02:23:07;;;;;;;10.57;6.82;;;;;;;;;;5052685;28;20035;-74
2024/03/01 02:25:33;;;;;;;12.13;7.30;;;;;;;;;;5050687;28;20021;-74
2024/03/01 02:27:59;;;;;;;11.55;6.72;;;;;;;;;;5050730;28;20025;-74
2024/03/01 02:30:25;;;;;;;9.75;5.40;;;;;;;;;;5052241;28;20078;-74
2024/03/01 02:32:51;;;;;;;10.90;5.28;;;;;;;;;;5050951;28;20021;-74
2024/03/01 02:35:17;;;;;;;12.35;6.38;;;;;;;;;;5051859;28;20430;-74
2024/03/01 02:37:43;;;;;;;11.95;5.50;;;;;;;;;;5052268;28;20051;-74
2024/03/01 02:40:10;;;;;;;8.85;4.82;;;;;;;;;;5051904;28;20037;-74
2024/03/01 02:42:36;;;;;;;10.52;5.82;;;;;;;;;;5052344;28;20052;-74
2024/03/01 02:45:02;;;;;;;11.20;6.80;;;;;;;;;;5050584;28;20025;-74
2024/03/01 02:47:28;;;;;;;11.52;7.30;;;;;;;;;;5052074;28;20075;-74
2024/03/01 02:49:54;;;;;;;13.35;7.70;;;;;;;;;;5050709;28;20063;-74
2024/03/01 02:52:20;;;;;;;7.45;3.92;;;;;;;;;;5050530;28;20057;-75
2024/03/01 02:54:46;;;;;;;10.70;7.75;;;;;;;;;;5051977;28;20049;-75
2024/03/01 02:57:12;;;;;;;14.18;7.75;;;;;;;;;;5051423;28;20061;-75
2024/03/01 02:59:38;;;;;;;11.68;6.10;;;;;;;;;;5050426;28;20446;-74
2024/03/01 03:02:04;;;;;;;14.30;8.60;;;;;;;;;;5050300;28;20122;-74
2024/03/01 03:04:30;;;;;;;10.00;6.50;;;;;;;;;;5050429;28;20021;-73
2024/03/01 03:06:58;;;;;;;12.10;6.53;;;;;;;;;;5050356;28;20036;-73
2024/03/01 03:09:24;;;;;;;12.05;8.35;;;;;;;;;;5051634;28;20075;-74
2024/03/01 03:11:50;;;;;;;10.85;6.55;;;;;;;;;;5051806;28;20013;-74
2024/03/01 03:14:16;;;;;;;11.85;8.35;;;;;;;;;;5051372;28;20481;-74
2024/03/01 03:16:43;;;;;;;11.98;7.93;;;;;;;;;;5050254;28;20216;-74
2024/03/01 03:19:09;;;;;;;10.65;6.93;;;;;;;;;;5049994;28;20025;-74
2024/03/01 03:21:35;;;;;;;9.85;5.70;;;;;;;;;;5049990;28;20029;-74
2024/03/01 03:24:01;;;;;;;12.35;7.15;;;;;;;;;;5050050;28;20025;-75
2024/03/01 03:26:28;;;;;;;12.52;7.90;;;;;;;;;;5050361;28;20029;-74
2024/03/01 03:28:54;;;;;;;12.57;8.23;;;;;;;;;;5050180;28;20077;-73
2024/03/01 03:31:21;;;;;;;15.00;7.38;;;;;;;;;;5050071;28;20017;-73
2024/03/01 03:33:47;;;;;;;14.30;7.88;;;;;;;;;;5051543;28;20555;-74
2024/03/01 03:36:13;;;;;;;13.18;8.25;;;;;;;;;;5053519;28;20302;-73
2024/03/01 03:38:39;;;;;;;11.98;6.72;;;;;;;;;;5055418;28;20025;-73
2024/03/01 03:41:06;;;;;;;10.52;5.85;;;;;;;;;;5054894;28;20028;-73
2024/03/01 03:43:32;;;;;;;13.68;8.23;;;;;;;;;;5053758;28;20082;-74
2024/03/01 03:45:58;;;;;;;13.43;7.30;;;;;;;;;;5053748;28;20104;-75
2024/03/01 03:48:24;;;;;;;16.17;8.48;;;;;;;;;;5055269;28;20112;-74
2024/03/01 03:50:50;;;;;;;12.38;8.07;;;;;;;;;;5055649;28;20025;-74
2024/03/01 03:53:17;;;;;;;14.68;7.88;;;;;;;;;;5053954;28;20036;-75
2024/03/01 03:55:43;;;;;;;12.95;8.10;;;;;;;;;;5056000;28;20017;-74
2024/03/01 03:58:09;;;;;;;13.13;6.32;;;;;;;;;;5053612;28;20025;-75
2024/03/01 04:00:35;;;;;;;13.07;7.35;;;;;;;;;;5053673;28;20033;-74
2024/03/01 04:03:01;;;;;;;12.40;6.65;;;;;;;;;;5054646;28;20025;-74
2024/03/01 04:05:29;;;;;;;12.50;7.30;;;;;;;;;;5053572;28;20021;-74
2024/03/01 04:07:55;;;;;;;11.68;7.68;;;;;;;;;;5053458;28;20580;-74
2024/03/01 04:10:21;;;;;;;12.57;7.13;;;;;;;;;;5053174;28;20079;-74
2024/03/01 04:12:47;;;;;;;12.82;7.72;;;;;;;;;;5053375;28;20021;-74
2024/03/01 04:15:14;;;;;;;10.70;6.97;;;;;;;;;;5054259;28;20350;-74
2024/03/01 04:17:41;;;;;;;10.85;6.93;;;;;;;;;;5053597;28;20102;-73
2024/03/01 04:20:08;;;;;;;10.93;5.75;;;;;;;;;;5053700;28;20029;-74
2024/03/01 04:22:34;;;;;;;9.75;5.75;;;;;;;;;;5054197;28;20036;-74
2024/03/01 04:25:00;;;;;;;11.82;7.15;;;;;;;;;;5053008;28;20029;-74
2024/03/01 04:27:26;;;;;;;12.95;8.32;;;;;;;;;;5053044;28;20021;-74
2024/03/01 04:29:52;;;;;;;13.63;7.80;;;;;;;;;;5053026;28;20082;-74
2024/03/01 04:32:18;;;;;;;7.15;5.10;;;;;;;;;;5054172;28;20183;-74
2024/03/01 04:34:45;;;;;;;7.75;4.55;;;;;;;;;;5052934;28;20025;-75
2024/03/01 04:37:13;;;;;;;8.65;4.95;;;;;;;;;;5052471;28;20115;-74
2024/03/01 04:39:39;;;;;;;8.38;4.82;;;;;;;;;;5054141;28;20029;-75
2024/03/01 04:42:05;;;;;;;7.30;4.72;;;;;;;;;;5052347;28;20028;-74
2024/03/01 04:44:32;;;;;;;9.13;6.20;;;;;;;;;;5054129;28;20025;-75
2024/03/01 04:46:58;;;;;;;10.38;6.65;;;;;;;;;;5051835;28;20534;-75
2024/03/01 04:49:24;;;;;;;8.45;6.28;;;;;;;;;;5054257;28;20535;-74
2024/03/01 04:51:50;;;;;;;7.93;4.88;;;;;;;;;;5054096;28;20055;-74
2024/03/01 04:54:16;;;;;;;7.00;5.10;;;;;;;;;;5053753;28;20099;-74
2024/03/01 04:56:44;;;;;;;9.95;6.07;;;;;;;;;;5052651;28;20496;-73
2024/03/01 04:59:10;;;;;;;10.13;5.38;;;;;;;;;;5053335;28;20112;-74
2024/03/01 05:01:39;;;;;;;9.45;6.82;;;;;;;;;;5053799;28;20107;-73
2024/03/01 05:04:08;;;;;;;9.10;6.10;;;;;;;;;;5052266;28;20098;-74
2024/03/01 05:06:35;;;;;;;11.52;6.55;;;;;;;;;;5052406;28;20111;-74
2024/03/01 05:09:01;;;;;;;8.70;6.20;;;;;;;;;;5052149;28;20486;-75
2024/03/01 05:11:32;;;;;;;7.55;5.22;;;;;;;;;;5053717;28;20044;-76
2024/03/01 05:13:58;;;;;;;8.10;5.47;;;;;;;;;;5052265;28;20074;-73
2024/03/01 05:16:24;;;;;;;10.55;5.53;;;;;;;;;;5051806;28;20052;-74
2024/03/01 05:18:51;;;;;;;7.45;5.13;;;;;;;;;;5053495;28;20025;-74
2024/03/01 05:21:17;;;;;;;9.80;6.13;;;;;;;;;;5051936;28;20380;-74
2024/03/01 05:23:43;;;;;;;7.18;4.72;;;;;;;;;;5053600;28;20028;-75
2024/03/01 05:26:09;;;;;;;6.50;4.35;;;;;;;;;;5053408;28;20087;-74
2024/03/01 05:28:35;;;;;;;7.88;3.50;;;;;;;;;;5052168;28;20032;-72
2024/03/01 05:31:02;;;;;;;6.68;3.47;;;;;;;;;;5052283;28;20025;-73
2024/03/01 05:33:30;;;;;;;5.22;2.63;;;;;;;;;;5053428;28;20092;-72
2024/03/01 05:35:56;;;;;;;4.95;2.70;;;;;;;;;;5052871;28;20468;-73
2024/03/01 05:38:22;;;;;;;5.13;1.95;;;;;;;;;;5052989;28;20423;-73
2024/03/01 05:40:48;;;;;;;3.92;1.80;;;;;;;;;;5053473;28;20388;-73
2024/03/01 05:43:15;;;;;;;3.97;1.25;;;;;;;;;;5052161;28;20037;-73
2024/03/01 05:45:41;;;;;;;3.45;1.50;;;;;;;;;;5052256;28;20024;-74
2024/03/01 05:48:11;;;;;;;5.05;1.55;;;;;;;;;;5052899;28;20381;-74
2024/03/01 05:50:38;;;;;;;4.57;1.63;;;;;;;;;;5051517;28;20289;-74
2024/03/01 05:53:04;;;;;;;4.55;2.83;;;;;;;;;;5051351;28;20025;-74
2024/03/01 05:55:30;;;;;;;5.57;2.03;;;;;;;;;;5052532;28;20496;-73
2024/03/01 05:57:56;;;;;;;5.22;2.50;;;;;;;;;;5051345;28;20492;-73
2024/03/01 06:00:25;;;;;;;7.43;2.60;;;;;;;;;;5052423;28;20033;-74
2024/03/01 06:02:51;;;;;;;5.13;2.50;;;;;;;;;;5052442;28;20094;-73
2024/03/01 06:05:18;;;;;;;6.72;2.40;;;;;;;;;;5052146;28;20028;-73
2024/03/01 06:07:44;;;;;;;7.07;2.72;;;;;;;;;;5050959;28;20025;-73
2024/03/01 06:10:11;;;;;;;6.65;2.95;;;;;;;;;;5052235;28;20595;-73
2024/03/01 06:12:37;;;;;;;6.68;2.50;;;;;;;;;;5050880;28;20033;-73
2024/03/01 06:15:04;;;;;;;6.85;2.92;;;;;;;;;;5052829;28;20017;-73
2024/03/01 06:17:30;;;;;;;9.35;2.97;;;;;;;;;;5053051;28;20045;-73
2024/03/01 06:19:56;;;;;;;6.75;2.95;;;;;;;;;;5052624;28;20036;-73
2024/03/01 06:22:22;;;;;;;8.10;3.15;;;;;;;;;;5053210;28;20021;-74
2024/03/01 06:24:48;;;;;;;15.20;4.05;;;;;;;;;;5050928;28;20056;-75
2024/03/01 06:27:15;;;;;;;6.65;3.13;;;;;;;;;;5050784;28;20024;-74
2024/03/01 06:29:41;;;;;;;6.35;3.15;;;;;;;;;;5050970;28;20052;-73
2024/03/01 06:32:10;;;;;;;6.55;2.83;;;;;;;;;;5050643;28;20025;-73
2024/03/01 06:34:36;;;;;;;8.23;3.45;;;;;;;;;;5052128;28;20099;-74
2024/03/01 06:37:03;;;;;;;6.82;3.72;;;;;;;;;;5052141;28;20440;-74
2024/03/01 06:39:29;;;;;;;5.68;3.15;;;;;;;;;;5051743;28;20027;-73
2024/03/01 06:41:55;;;;;;;11.75;4.70;;;;;;;;;;5052047;28;20067;-74
2024/03/01 06:44:25;;;;;;;10.73;3.35;;;;;;;;;;5050456;28;20049;-74
2024/03/01 06:46:51;;;;;;;15.05;5.47;;;;;;;;;;5050755;28;20032;-74
2024/03/01 06:49:18;;;;;;;10.25;3.97;;;;;;;;;;5051769;28;20036;-74
2024/03/01 06:51:44;;;;;;;9.85;4.43;;;;;;;;;;5052025;28;20021;-74
2024/03/01 06:54:10;;;;;;;12.75;5.28;;;;;;;;;;5051754;28;20067;-74
2024/03/01 06:56:40;;;;;;;13.90;4.38;;;;;;;;;;5051737;28;20024;-74
2024/03/01 06:59:06;;;;;;;14.82;3.88;;;;;;;;;;5050742;28;20033;-74
2024/03/01 07:01:32;;;;;;;9.77;4.90;;;;;;;;;;5050550;28;20029;-74
2024/03/01 07:03:59;;;;;;;7.40;3.58;;;;;;;;;;5050692;28;20032;-73
2024/03/01 07:06:25;;;;;;;9.05;3.90;;;;;;;;;;5051640;28;20075;-74
2024/03/01 07:08:51;;;;;;;7.82;3.45;;;;;;;;;;5050534;28;20025;-73
2024/03/01 07:11:17;;;;;;;7.28;2.65;;;;;;;;;;5055729;28;20021;-74
2024/03/01 07:13:46;;;;;;;8.77;2.63;;;;;;;;;;5054494;28;20025;-74
2024/03/01 07:16:15;;;;;;;5.85;3.35;;;;;;;;;;5053822;28;20045;-74
2024/03/01 07:18:41;;;;;;;6.25;2.90;;;;;;;;;;5054324;28;20025;-74
2024/03/01 07:21:07;;;;;;;6.90;2.63;;;;;;;;;;5054384;28;20032;-74
2024/03/01 07:23:33;;;;;;;7.75;3.10;;;;;;;;;;5055536;28;20017;-73
2024/03/01 07:25:59;;;;;;;7.10;2.85;;;;;;;;;;5055295;28;20056;-73
2024/03/01 07:28:27;;;;;;;4.88;2.50;;;;;;;;;;5055719;28;20029;-74
2024/03/01 07:30:54;;;;;;;6.25;2.78;;;;;;;;;;5055256;28;20040;-74
2024/03/01 07:33:21;;;;;;;10.95;3.33;;;;;;;;;;5055258;28;20029;-74
2024/03/01 07:35:47;;;;;;;6.57;3.03;;;;;;;;;;5055554;28;20029;-74
2024/03/01 07:38:14;;;;;;;5.68;2.50;;;;;;;;;;5053845;28;20106;-74
2024/03/01 07:40:40;;;;;;;5.07;2.92;;;;;;;;;;5053811;28;20021;-75
2024/03/01 07:43:06;;;;;;;5.85;2.38;;;;;;;;;;5055527;28;20491;-74
2024/03/01 07:45:32;;;;;;;7.72;3.30;;;;;;;;;;5053881;28;20512;-74
2024/03/01 07:47:59;;;;;;;5.57;3.05;;;;;;;;;;5054287;28;20060;-75
2024/03/01 07:50:26;;;;;;;10.10;4.97;;;;;;;;;;5055037;28;20021;-74
2024/03/01 07:52:52;;;;;;;8.07;3.60;;;;;;;;;;5055038;28;20013;-74
2024/03/01 07:55:18;;;;;;;8.05;4.93;;;;;;;;;;5053451;28;20029;-74
2024/03/01 07:57:44;;;;;;;10.60;5.65;;;;;;;;;;5053329;28;20068;-75
2024/03/01 08:00:11;;;;;;;11.32;5.63;;;;;;;;;;5053186;28;20040;-74
2024/03/01 08:02:37;;;;;;;8.15;4.20;;;;;;;;;;5053425;28;20032;-74
2024/03/01 08:05:04;;;;;;;10.77;4.93;;;;;;;;;;5053525;28;20437;-73
2024/03/01 08:07:30;;;;;;;9.85;4.93;;;;;;;;;;5054532;28;20060;-74
2024/03/01 08:09:56;;;;;;;11.82;5.15;;;;;;;;;;5053416;28;20366;-74
2024/03/01 08:12:22;;;;;;;11.10;5.82;;;;;;;;;;5054578;28;20495;-74
2024/03/01 08:14:50;;;;;;;13.60;6.03;;;;;;;;;;5053543;28;20032;-74
2024/03/01 08:17:18;;;;;;;10.57;5.60;;;;;;;;;;5054431;28;20183;-74
2024/03/01 08:19:45;;;;;;;14.90;7.32;;;;;;;;;;5054950;28;20021;-74
2024/03/01 08:22:13;;;;;;;15.10;6.65;;;;;;;;;;5053672;28;20075;-74
2024/03/01 08:24:41;;;;;;;13.82;7.47;;;;;;;;;;5054490;28;20027;-74
2024/03/01 08:27:08;;;;;;;11.77;6.50;;;;;;;;;;5054490;28;20013;-74
2024/03/01 08:29:35;;;;;;;13.50;8.88;;;;;;;;;;5054272;28;20056;-73
2024/03/01 08:32:01;;;;;;;12.60;7.80;;;;;;;;;;5054299;28;20029;-73
2024/03/01 08:34:34;;;;;;;12.63;6.95;;;;;;;;;;5052586;28;20089;-76
2024/03/01 08:37:00;;;;;;;11.30;7.00;;;;;;;;;;5053220;28;20385;-72
2024/03/01 08:39:27;;;;;;;13.55;8.77;;;;;;;;;;5052493;28;20362;-74
2024/03/01 08:41:55;;;;;;;16.00;11.50;;;;;;;;;;5052854;28;20511;-73
2024/03/01 08:44:31;;;;;;;15.57;9.65;;;;;;;;;;5053879;28;20116;-73
2024/03/01 08:46:57;;;;;;;22.33;12.23;;;;;;;;;;5052858;28;20108;-74
2024/03/01 08:49:39;;;;;;;16.92;11.70;;;;;;;;;;5053604;28;20075;-74
2024/03/01 08:52:13;;;;;;;17.08;9.88;;;;;;;;;;5052722;28;20033;-73
2024/03/01 08:54:40;;;;;;;16.60;10.68;;;;;;;;;;5052669;28;20486;-74
2024/03/01 08:57:06;;;;;;;14.50;9.75;;;;;;;;;;5053411;28;20461;-73
2024/03/01 08:59:32;;;;;;;19.35;12.02;;;;;;;;;;5053394;28;20025;-73
2024/03/01 09:01:58;;;;;;;17.02;10.48;;;;;;;;;;5053435;28;20469;-74
2024/03/01 09:04:37;;;;;;;16.02;10.40;;;;;;;;;;5052065;28;20033;-73
2024/03/01 09:07:07;;;;;;;16.13;11.38;;;;;;;;;;5053628;28;20021;-73
2024/03/01 09:09:34;;;;;;;15.57;10.30;;;;;;;;;;5053367;28;20438;-74
2024/03/01 09:12:00;;;;;;;14.77;8.57;;;;;;;;;;5053219;28;20024;-74
2024/03/01 09:14:29;;;;;;;18.30;10.68;;;;;;;;;;5051920;28;20032;-74
2024/03/01 09:16:55;;;;;;;14.10;10.18;;;;;;;;;;5053381;28;20139;-74
2024/03/01 09:19:23;;;;;;;15.82;10.00;;;;;;;;;;5053161;28;20032;-75
2024/03/01 09:21:49;;;;;;;14.85;10.25;;;;;;;;;;5052047;28;20025;-73
2024/03/01 09:24:17;;;;;;;15.43;9.30;;;;;;;;;;5053170;28;20504;-74
2024/03/01 09:26:43;;;;;;;14.63;9.65;;;;;;;;;;5052218;28;20544;-74
2024/03/01 09:29:19;;;;;;;13.30;8.40;;;;;;;;;;5052282;28;20052;-73
2024/03/01 09:31:45;;;;;;;13.70;9.98;;;;;;;;;;5051606;28;20036;-74
2024/03/01 09:34:14;;;;;;;14.00;8.98;;;;;;;;;;5051737;28;20028;-74
2024/03/01 09:36:40;;;;;;;16.20;8.70;;;;;;;;;;5053191;28;20021;-74
2024/03/01 09:39:08;;;;;;;13.20;8.43;;;;;;;;;;5052983;28;20291;-74
2024/03/01 09:41:43;;;;;;;10.98;8.50;;;;;;;;;;5052760;28;20362;-74
2024/03/01 09:44:28;;;;;;;14.93;9.38;;;;;;;;;;5052660;28;20400;-74
2024/03/01 09:47:07;;;;;;;15.52;9.82;;;;;;;;;;5051515;28;20024;-74
2024/03/01 09:49:46;;;;;;;12.05;8.32;;;;;;;;;;5051380;28;20029;-74
2024/03/01 09:52:12;;;;;;;13.32;7.28;;;;;;;;;;5051408;28;20025;-74
2024/03/01 09:54:45;;;;;;;10.18;5.28;;;;;;;;;;5051298;28;20376;-74
2024/03/01 09:57:24;;;;;;;11.25;5.63;;;;;;;;;;5051505;28;20036;-73
2024/03/01 09:59:55;;;;;;;12.35;7.30;;;;;;;;;;5052417;28;20021;-73
2024/03/01 10:02:41;;;;;;;11.77;7.18;;;;;;;;;;5052699;28;20025;-74
2024/03/01 10:05:09;;;;;;;9.93;6.45;;;;;;;;;;5044128;28;20029;-73
2024/03/01 10:07:38;;;;;;;11.40;7.03;;;;;;;;;;5051326;28;20033;-73
2024/03/01 10:10:23;;;;;;;14.98;6.53;;;;;;;;;;5052550;28;20032;-74
2024/03/01 10:12:52;;;;;;;9.00;4.88;;;;;;;;;;5052500;28;20079;-73
2024/03/01 10:15:24;;;;;;;11.95;5.53;;;;;;;;;;5051165;28;20017;-73
2024/03/01 10:18:08;;;;;;;11.32;4.75;;;;;;;;;;5051780;28;20051;-75
2024/03/01 10:20:54;;;;;;;9.00;4.85;;;;;;;;;;5051570;28;20025;-73
2024/03/01 10:23:39;;;;;;;7.28;3.92;;;;;;;;;;5048763;28;20408;-73
2024/03/01 10:26:12;;;;;;;13.55;5.15;;;;;;;;;;5052485;28;20373;-74
2024/03/01 10:28:44;;;;;;;11.88;4.25;;;;;;;;;;5050829;28;20027;-75
2024/03/01 10:31:21;;;;;;;8.98;4.50;;;;;;;;;;5052794;28;20021;-74
2024/03/01 10:34:00;;;;;;;9.40;3.92;;;;;;;;;;5052152;28;20027;-74
2024/03/01 10:36:39;;;;;;;8.68;4.50;;;;;;;;;;5050711;28;20029;-74
2024/03/01 10:39:23;;;;;;;6.05;2.70;;;;;;;;;;5051865;28;20376;-74
2024/03/01 10:42:01;;;;;;;10.95;3.65;;;;;;;;;;5050918;28;20485;-74
2024/03/01 10:44:37;;;;;;;9.90;4.80;;;;;;;;;;5051063;28;20033;-74
2024/03/01 10:47:13;;;;;;;9.15;3.20;;;;;;;;;;5050831;28;20029;-73
2024/03/01 10:49:45;;;;;;;8.00;3.85;;;;;;;;;;5052110;28;20112;-73
2024/03/01 10:52:15;;;;;;;8.57;3.17;;;;;;;;;;5050560;28;20098;-74
2024/03/01 10:54:42;;;;;;;9.15;3.55;;;;;;;;;;5052014;28;20075;-74
2024/03/01 10:57:11;;;;;;;13.38;3.92;;;;;;;;;;5052136;28;20021;-74
2024/03/01 10:59:48;;;;;;;6.07;2.90;;;;;;;;;;5050313;28;20028;-72
2024/03/01 11:02:17;;;;;;;9.55;3.25;;;;;;;;;;5051868;28;20108;-73
2024/03/01 11:04:58;;;;;;;5.30;1.92;;;;;;;;;;5052024;28;20100;-74
2024/03/01 11:07:30;;;;;;;9.80;3.65;;;;;;;;;;5051464;28;20017;-74
2024/03/01 11:10:02;;;;;;;8.93;3.70;;;;;;;;;;5051881;28;20487;-74
2024/03/01 11:12:35;;;;;;;10.27;3.35;;;;;;;;;;5050002;28;20021;-74
2024/03/01 11:15:07;;;;;;;11.10;3.60;;;;;;;;;;5051677;28;20025;-74
2024/03/01 11:17:35;;;;;;;11.45;3.78;;;;;;;;;;5049829;28;20068;-74
2024/03/01 11:20:10;;;;;;;8.45;2.92;;;;;;;;;;5051215;28;20317;-74
2024/03/01 11:22:38;;;;;;;5.50;2.40;;;;;;;;;;5049909;28;20078;-73
2024/03/01 11:25:07;;;;;;;10.77;3.25;;;;;;;;;;5050247;28;20531;-74
2024/03/01 11:27:36;;;;;;;6.85;3.10;;;;;;;;;;5051084;28;20500;-74
2024/03/01 11:30:06;;;;;;;7.47;2.95;;;;;;;;;;5050192;28;20036;-74
2024/03/01 11:32:33;;;;;;;8.77;3.30;;;;;;;;;;5051573;28;20028;-74
2024/03/01 11:35:02;;;;;;;9.13;3.00;;;;;;;;;;5050166;28;20372;-73
2024/03/01 11:37:36;;;;;;;7.40;2.80;;;;;;;;;;5051003;28;20148;-74
2024/03/01 11:40:10;;;;;;;10.27;3.60;;;;;;;;;;5050006;28;20388;-75
2024/03/01 11:42:36;;;;;;;7.50;2.63;;;;;;;;;;5051142;28;20025;-75
2024/03/01 11:45:02;;;;;;;6.88;2.25;;;;;;;;;;5051712;28;20117;-74
2024/03/01 11:47:41;;;;;;;7.03;2.50;;;;;;;;;;5049813;28;20025;-74
2024/03/01 11:50:36;;;;;;;5.78;2.55;;;;;;;;;;5051346;28;20029;-75
2024/03/01 11:53:20;;;;;;;5.82;2.40;;;;;;;;;;5031576;28;20053;-74
2024/03/01 11:56:09;;;;;;;7.28;3.28;;;;;;;;;;5051342;28;20464;-74
2024/03/01 11:58:58;;;;;;;6.00;2.05;;;;;;;;;;5053365;28;20040;-75
2024/03/01 12:01:36;;;;;;;5.47;1.67;;;;;;;;;;5053459;28;20383;-74
2024/03/01 12:04:03;;;;;;;8.68;2.53;;;;;;;;;;5053538;28;20025;-74
2024/03/01 12:06:35;;;;;;;5.20;2.15;;;;;;;;;;5054799;28;20025;-74
2024/03/01 12:09:20;;;;;;;6.25;2.13;;;;;;;;;;5055014;28;20052;-75
2024/03/01 12:11:55;;;;;;;9.50;2.00;;;;;;;;;;5053422;28;20024;-74
2024/03/01 12:14:24;;;;;;;3.70;1.90;;;;;;;;;;5055028;28;20025;-74
2024/03/01 12:16:50;;;;;;;7.15;2.10;;;;;;;;;;5053631;28;20049;-75
2024/03/01 12:19:18;;;;;;;5.63;1.40;;;;;;;;;;5054791;28;20040;-74
2024/03/01 12:21:44;;;;;;;3.92;1.70;;;;;;;;;;5055591;28;20024;-75
2024/03/01 12:24:13;;;;;;;5.00;1.75;;;;;;;;;;5053874;28;20082;-73
2024/03/01 12:26:47;;;;;;;11.45;2.00;;;;;;;;;;5054841;28;20106;-74
2024/03/01 12:29:14;;;;;;;5.55;1.77;;;;;;;;;;5054124;28;20017;-74
2024/03/01 12:31:46;;;;;;;4.03;1.60;;;;;;;;;;5053850;28;20039;-74
2024/03/01 12:34:12;;;;;;;3.08;1.25;;;;;;;;;;5054508;28;20453;-73
2024/03/01 12:36:42;;;;;;;3.97;1.63;;;;;;;;;;5053957;28;20029;-75
2024/03/01 12:39:11;;;;;;;4.13;1.30;;;;;;;;;;5054142;28;20029;-73
2024/03/01 12:41:51;;;;;;;6.10;1.67;;;;;;;;;;5052561;28;20272;-74
2024/03/01 12:44:17;;;;;;;;;;;;;;;;;;5053243;28;20373;-75
2024/03/01 12:46:46;;;;;;;3.45;1.60;;;;;;;;;;5052658;28;19905;-74
2024/03/01 12:49:32;;;;;;;3.70;1.33;;;;;;;;;;5052660;28;20021;-75
2024/03/01 12:52:16;;;;;;;4.35;1.77;;;;;;;;;;5052271;28;20021;-75
2024/03/01 12:54:45;;;;;;;3.35;1.13;;;;;;;;;;5053921;28;20040;-75
2024/03/01 12:57:14;;;;;;;4.30;1.67;;;;;;;;;;5052518;28;20379;-75
2024/03/01 13:00:00;;;;;;;2.20;1.30;;;;;;;;;;5053438;28;20032;-75
2024/03/01 13:02:34;;;;;;;2.75;1.20;;;;;;;;;;5053808;28;20060;-74
2024/03/01 13:05:19;;;;;;;3.22;1.35;;;;;;;;;;5053081;28;20043;-75
2024/03/01 13:07:45;;;;;;;3.03;1.10;;;;;;;;;;5052294;28;20032;-75
2024/03/01 13:10:13;;;;;;;2.67;1.10;;;;;;;;;;5053044;28;20033;-77
2024/03/01 13:12:45;;;;;;;3.05;1.00;;;;;;;;;;5051758;28;20271;-75
2024/03/01 13:15:19;;;;;;;3.75;1.17;;;;;;;;;;5052285;28;20400;-75
2024/03/01 13:17:46;;;;;;;3.90;0.88;;;;;;;;;;5052032;28;20041;-75
2024/03/01 13:20:31;;;;;;;2.58;1.20;;;;;;;;;;5052075;28;20029;-75
2024/03/01 13:23:18;;;;;;;4.88;1.20;;;;;;;;;;5052094;28;20131;-76
2024/03/01 13:25:53;;;;;;;3.00;0.90;;;;;;;;;;5052953;28;20486;-75
2024/03/01 13:28:23;;;;;;;2.13;1.05;;;;;;;;;;5053092;28;20407;-75
2024/03/01 13:30:51;;;;;;;2.03;0.80;;;;;;;;;;5053312;28;20025;-74
2024/03/01 13:33:35;;;;;;;4.15;1.00;;;;;;;;;;5053221;28;20016;-75
2024/03/01 13:36:10;;;;;;;1.52;0.90;;;;;;;;;;5052803;28;20032;-75
2024/03/01 13:38:52;;;;;;;4.63;1.13;;;;;;;;;;5052609;28;20435;-74
2024/03/01 13:41:21;;;;;;;5.03;0.93;;;;;;;;;;5051826;28;20087;-75
2024/03/01 13:43:55;;;;;;;2.53;0.80;;;;;;;;;;5051739;28;20025;-75
2024/03/01 13:46:49;;;;;;;1.95;0.70;;;;;;;;;;5053046;28;20032;-74
2024/03/01 13:49:17;;;;;;;2.38;0.90;;;;;;;;;;5050147;28;20143;-74
2024/03/01 13:51:47;;;;;;;4.40;0.88;;;;;;;;;;5052428;28;20082;-75
2024/03/01 13:54:14;;;;;;;2.50;1.00;;;;;;;;;;5051563;28;20368;-76
2024/03/01 13:56:42;;;;;;;3.03;0.77;;;;;;;;;;5052592;28;20052;-75
2024/03/01 13:59:08;;;;;;;2.85;0.90;;;;;;;;;;5051396;28;20036;-75
2024/03/01 14:01:35;;;;;;;2.58;0.73;;;;;;;;;;5051166;28;20036;-74
2024/03/01 14:04:01;;;;;;;1.15;0.60;;;;;;;;;;5052748;28;20095;-74
2024/03/01 14:06:28;;;;;;;1.08;0.60;;;;;;;;;;5052488;28;20078;-74
2024/03/01 14:08:54;;;;;;;3.20;1.05;;;;;;;;;;5052603;28;20373;-74
2024/03/01 14:11:20;;;;;;;1.83;0.88;;;;;;;;;;5052668;28;20044;-74
2024/03/01 14:13:50;;;;;;;2.97;0.88;;;;;;;;;;5051435;28;20076;-74
2024/03/01 14:16:19;;;;;;;4.97;0.97;;;;;;;;;;5052373;28;20068;-74
2024/03/01 14:18:45;;;;;;;2.67;0.68;;;;;;;;;;5050751;28;20292;-74
2024/03/01 14:21:11;;;;;;;3.00;0.85;;;;;;;;;;5051126;28;20112;-74
2024/03/01 14:23:41;;;;;;;3.08;0.98;;;;;;;;;;5051509;28;20457;-74
2024/03/01 14:26:10;;;;;;;4.43;1.13;;;;;;;;;;5052618;28;20473;-74
2024/03/01 14:28:36;;;;;;;5.53;1.00;;;;;;;;;;5053375;28;20271;-74
2024/03/01 14:31:02;;;;;;;3.33;1.13;;;;;;;;;;5051208;28;20028;-75
2024/03/01 14:33:31;;;;;;;3.05;0.80;;;;;;;;;;5050750;28;20033;-73
2024/03/01 14:36:05;;;;;;;2.58;0.82;;;;;;;;;;5051140;28;20021;-73
2024/03/01 14:38:31;;;;;;;3.42;1.13;;;;;;;;;;5052122;28;20163;-74
2024/03/01 14:40:58;;;;;;;2.83;0.60;;;;;;;;;;5051913;28;20075;-73
2024/03/01 14:43:25;;;;;;;3.38;1.20;;;;;;;;;;5051946;28;20044;-73
2024/03/01 14:45:54;;;;;;;3.90;1.17;;;;;;;;;;5051107;28;20492;-74